| time (UTC) | temp C | wind direction | speed KPH | gust KPH | rain 1hr cm | rain 24hr cm | rain mn cm | humidity % | barometer mb |
| 20260831040236 | 25 | 90 | 3.2 | 8.0 | 0.00 | 0.00 | 0.00 | 33 | 1028.7 |
| 20260831033738 | 25 | 0 | 1.6 | 3.2 | 0.00 | 0.00 | 0.00 | 34 | 1029.0 |
| 20260831033239 | 25 | 0 | 3.2 | 6.4 | 0.00 | 0.00 | 0.00 | 35 | 1029.0 |
| 20260831032242 | 23 | 23 | 4.8 | 8.0 | 0.00 | 0.00 | 0.00 | 38 | 1029.1 |
| 20260831031244 | 24 | 315 | 6.4 | 8.0 | 0.00 | 0.00 | 0.00 | 37 | 1029.3 |
| 20260831030744 | 23 | 45 | 3.2 | 6.4 | 0.00 | 0.00 | 0.00 | 36 | 1029.4 |
| 20260831024746 | 24 | 315 | 3.2 | 8.0 | 0.00 | 0.00 | 0.00 | 36 | 1029.8 |
| 20260831024246 | 24 | 0 | 1.6 | 3.2 | 0.00 | 0.00 | 0.00 | 35 | 1029.9 |
| 20260831022251 | 24 | 0 | 3.2 | 3.2 | 0.00 | 0.00 | 0.00 | 39 | 1030.2 |
| 20260831021752 | 23 | 90 | 0.0 | 3.2 | 0.00 | 0.00 | 0.00 | 42 | 1030.2 |
| 20260831020254 | 23 | 23 | 1.6 | 3.2 | 0.00 | 0.00 | 0.00 | 42 | 1030.5 |
| 20260831014758 | 22 | 293 | 3.2 | 4.8 | 0.00 | 0.00 | 0.00 | 46 | 1030.7 |
| 20260831014259 | 22 | 0 | 6.4 | 8.0 | 0.00 | 0.00 | 0.00 | 44 | 1030.8 |
| 20260831012305 | 22 | 0 | 3.2 | 6.4 | 0.00 | 0.00 | 0.00 | 48 | 1031.0 |
| 20260831011803 | 22 | 338 | 4.8 | 6.4 | 0.00 | 0.00 | 0.00 | 49 | 1031.1 |
| 20260831011303 | 22 | 0 | 3.2 | 6.4 | 0.00 | 0.00 | 0.00 | 49 | 1031.1 |
| 20260831010306 | 21 | 45 | 3.2 | 8.0 | 0.00 | 0.00 | 0.00 | 50 | 1031.3 |
| 20260831005807 | 21 | 0 | 3.2 | 6.4 | 0.00 | 0.00 | 0.00 | 52 | 1031.2 |
| 20260831004809 | 20 | 0 | 3.2 | 6.4 | 0.00 | 0.00 | 0.00 | 58 | 1031.3 |
| 20260831004309 | 20 | 0 | 6.4 | 8.0 | 0.00 | 0.00 | 0.00 | 61 | 1031.3 |
| 20260831002813 | 18 | 315 | 8.0 | 9.7 | 0.00 | 0.00 | 0.00 | 66 | 1031.3 |
| 20260831001316 | 18 | 315 | 3.2 | 8.0 | 0.00 | 0.00 | 0.00 | 69 | 1031.3 |
| 20260831000816 | 18 | 315 | 9.7 | 12.9 | 0.00 | 0.00 | 0.00 | 69 | 1031.4 |
| 20260830234322 | 18 | 0 | 3.2 | 4.8 | 0.00 | 0.00 | 0.00 | 72 | 1031.3 |
| 20260830233324 | 17 | 0 | 3.2 | 6.4 | 0.00 | 0.00 | 0.00 | 70 | 1031.4 |
| 20260830231327 | 16 | 45 | 0.0 | 1.6 | 0.00 | 0.00 | 0.00 | 73 | 1031.3 |
| 20260830230323 | 16 | 0 | 3.2 | 3.2 | 0.00 | 0.00 | 0.00 | 72 | 1031.2 |
| 20260830225551 | 16 | 0 | 0.0 | 3.2 | 0.00 | 0.00 | 0.00 | 73 | 1031.2 |
| 20260830225053 | 16 | 45 | 0.0 | 3.2 | 0.00 | 0.00 | 0.00 | 74 | 1031.2 |
| 20260830223556 | 15 | 0 | 1.6 | 3.2 | 0.00 | 0.00 | 0.00 | 78 | 1031.2 |
| 20260830223057 | 15 | 0 | 0.0 | 1.6 | 0.00 | 0.00 | 0.00 | 79 | 1031.2 |
| 20260830221600 | 15 | 45 | 1.6 | 3.2 | 0.00 | 0.00 | 0.00 | 79 | 1031.1 |
| 20260830220602 | 15 | 0 | 3.2 | 3.2 | 0.00 | 0.00 | 0.00 | 82 | 1031.1 |
| 20260830214106 | 13 | 0 | 3.2 | 3.2 | 0.00 | 0.00 | 0.00 | 93 | 1030.9 |
| 20260830204617 | 11 | 23 | 4.8 | 6.4 | 0.00 | 0.00 | 0.00 | 98 | 1030.1 |
| 20260830202615 | 11 | 45 | 4.8 | 6.4 | 0.00 | 0.00 | 0.00 | 98 | 1030.0 |
| 20260830201059 | 11 | 90 | 3.2 | 3.2 | 0.00 | 0.00 | 0.00 | 98 | 1030.1 |
| 20260830200600 | 11 | 90 | 3.2 | 3.2 | 0.00 | 0.00 | 0.00 | 98 | 1030.0 |
| 20260830194105 | 11 | 135 | 0.0 | 1.6 | 0.00 | 0.00 | 0.00 | 98 | 1029.7 |
| 20260830193606 | 11 | 135 | 0.0 | 0.0 | 0.00 | 0.00 | 0.00 | 97 | 1029.7 |
| 20260830193107 | 11 | 135 | 0.0 | 0.0 | 0.00 | 0.00 | 0.00 | 98 | 1029.6 |
| 20260830192109 | 11 | 135 | 0.0 | 1.6 | 0.00 | 0.00 | 0.00 | 97 | 1029.5 |
| 20260830190610 | 11 | 135 | 0.0 | 1.6 | 0.00 | 0.00 | 0.00 | 97 | 1029.6 |
| 20260830190112 | 11 | 135 | 0.0 | 1.6 | 0.00 | 0.00 | 0.00 | 97 | 1029.6 |
| 20260830185114 | 11 | 135 | 0.0 | 1.6 | 0.00 | 0.00 | 0.00 | 97 | 1029.6 |
| 20260830184116 | 11 | 135 | 0.0 | 1.6 | 0.00 | 0.00 | 0.00 | 97 | 1029.6 |
| 20260830173626 | 11 | 135 | 0.0 | 1.6 | 0.00 | 0.00 | 0.00 | 96 | 1029.7 |
| 20260830173126 | 11 | 135 | 0.0 | 1.6 | 0.00 | 0.00 | 0.00 | 95 | 1029.6 |
| 20260830172626 | 11 | 135 | 1.6 | 3.2 | 0.00 | 0.00 | 0.00 | 95 | 1029.6 |
| 20260830172126 | 11 | 135 | 0.0 | 0.0 | 0.00 | 0.00 | 0.00 | 95 | 1029.7 |
| 20260830171126 | 11 | 135 | 0.0 | 1.6 | 0.00 | 0.00 | 0.00 | 95 | 1029.6 |
| 20260830170627 | 11 | 135 | 0.0 | 1.6 | 0.00 | 0.00 | 0.00 | 95 | 1029.6 |
| 20260830163633 | 12 | 135 | 0.0 | 1.6 | 0.00 | 0.00 | 0.00 | 94 | 1029.7 |
| 20260830162135 | 12 | 135 | 1.6 | 3.2 | 0.00 | 0.00 | 0.00 | 94 | 1029.7 |
| 20260830161136 | 12 | 135 | 1.6 | 3.2 | 0.00 | 0.00 | 0.00 | 93 | 1029.7 |
| 20260830160637 | 12 | 135 | 0.0 | 3.2 | 0.00 | 0.00 | 0.00 | 93 | 1029.7 |
| 20260830160137 | 12 | 135 | 3.2 | 4.8 | 0.00 | 0.00 | 0.00 | 93 | 1029.8 |
| 20260830155138 | 12 | 135 | 3.2 | 4.8 | 0.00 | 0.00 | 0.00 | 93 | 1029.8 |
| 20260830153142 | 13 | 135 | 3.2 | 3.2 | 0.00 | 0.00 | 0.00 | 94 | 1030.0 |
| 20260830152642 | 13 | 135 | 3.2 | 3.2 | 0.00 | 0.00 | 0.00 | 94 | 1030.0 |
| 20260830151644 | 13 | 135 | 3.2 | 3.2 | 0.00 | 0.00 | 0.00 | 94 | 1030.1 |
| 20260830150646 | 12 | 135 | 0.0 | 1.6 | 0.00 | 0.00 | 0.00 | 93 | 1030.0 |
| 20260830145649 | 12 | 135 | 1.6 | 3.2 | 0.00 | 0.00 | 0.00 | 93 | 1030.1 |
| 20260830145149 | 12 | 135 | 1.6 | 3.2 | 0.00 | 0.00 | 0.00 | 93 | 1030.2 |
| 20260830144651 | 12 | 135 | 0.0 | 1.6 | 0.00 | 0.00 | 0.00 | 92 | 1030.2 |
| 20260830144152 | 12 | 135 | 3.2 | 3.2 | 0.00 | 0.00 | 0.00 | 91 | 1030.2 |
| 20260830143653 | 12 | 135 | 1.6 | 3.2 | 0.00 | 0.00 | 0.00 | 90 | 1030.2 |
| 20260830142156 | 12 | 135 | 1.6 | 3.2 | 0.00 | 0.00 | 0.00 | 88 | 1030.1 |
| 20260830141657 | 12 | 90 | 0.0 | 1.6 | 0.00 | 0.00 | 0.00 | 87 | 1030.1 |
| 20260830141157 | 12 | 90 | 0.0 | 0.0 | 0.00 | 0.00 | 0.00 | 86 | 1030.1 |
| 20260830140658 | 12 | 90 | 1.6 | 3.2 | 0.00 | 0.00 | 0.00 | 84 | 1030.1 |
| 20260830135701 | 13 | 90 | 0.0 | 1.6 | 0.00 | 0.00 | 0.00 | 82 | 1030.1 |
| 20260830133705 | 14 | 90 | 0.0 | 1.6 | 0.00 | 0.00 | 0.00 | 81 | 1030.0 |
| 20260830133206 | 14 | 90 | 0.0 | 0.0 | 0.00 | 0.00 | 0.00 | 81 | 1030.1 |
| 20260830131709 | 14 | 135 | 0.0 | 0.0 | 0.00 | 0.00 | 0.00 | 83 | 1030.2 |
| 20260830125713 | 13 | 135 | 0.0 | 0.0 | 0.00 | 0.00 | 0.00 | 89 | 1030.2 |
| 20260830124715 | 13 | 135 | 1.6 | 3.2 | 0.00 | 0.00 | 0.00 | 90 | 1030.3 |
| 20260830124215 | 13 | 135 | 0.0 | 1.6 | 0.00 | 0.00 | 0.00 | 91 | 1030.3 |
| 20260830123716 | 13 | 135 | 3.2 | 3.2 | 0.00 | 0.00 | 0.00 | 90 | 1030.4 |
| 20260830122218 | 13 | 90 | 1.6 | 3.2 | 0.00 | 0.00 | 0.00 | 89 | 1030.2 |
| 20260830121719 | 13 | 90 | 0.0 | 1.6 | 0.00 | 0.00 | 0.00 | 89 | 1030.1 |
| 20260830121219 | 13 | 90 | 0.0 | 1.6 | 0.00 | 0.00 | 0.00 | 88 | 1030.1 |
| 20260830120719 | 13 | 90 | 1.6 | 3.2 | 0.00 | 0.00 | 0.00 | 88 | 1030.1 |
| 20260830115721 | 13 | 90 | 0.0 | 0.0 | 0.00 | 0.00 | 0.00 | 88 | 1030.0 |
| 20260830113726 | 14 | 90 | 0.0 | 1.6 | 0.00 | 0.00 | 0.00 | 87 | 1030.0 |
| 20260830112229 | 13 | 90 | 0.0 | 0.0 | 0.00 | 0.00 | 0.00 | 85 | 1030.1 |
| 20260830110233 | 14 | 90 | 0.0 | 0.0 | 0.00 | 0.00 | 0.00 | 87 | 1029.9 |
| 20260830104736 | 14 | 90 | 0.0 | 0.0 | 0.00 | 0.00 | 0.00 | 88 | 1030.0 |
| 20260830101242 | 14 | 90 | 0.0 | 0.0 | 0.00 | 0.00 | 0.00 | 83 | 1029.9 |
| 20260830100744 | 14 | 90 | 0.0 | 0.0 | 0.00 | 0.00 | 0.00 | 82 | 1029.8 |
| 20260830100245 | 14 | 90 | 0.0 | 0.0 | 0.00 | 0.00 | 0.00 | 81 | 1029.9 |
| 20260830094249 | 14 | 90 | 0.0 | 0.0 | 0.00 | 0.00 | 0.00 | 79 | 1029.7 |
| 20260830092751 | 15 | 90 | 0.0 | 1.6 | 0.00 | 0.00 | 0.00 | 78 | 1029.7 |
| 20260830084800 | 16 | 90 | 1.6 | 3.2 | 0.00 | 0.00 | 0.00 | 74 | 1029.3 |
| 20260830084301 | 16 | 90 | 1.6 | 3.2 | 0.00 | 0.00 | 0.00 | 74 | 1029.3 |
| 20260830083802 | 16 | 90 | 1.6 | 3.2 | 0.00 | 0.00 | 0.00 | 73 | 1029.3 |
| 20260830080805 | 16 | 90 | 1.6 | 3.2 | 0.00 | 0.00 | 0.00 | 73 | 1029.1 |
| 20260830080306 | 16 | 90 | 3.2 | 3.2 | 0.00 | 0.00 | 0.00 | 72 | 1029.0 |
| 20260830075309 | 16 | 90 | 3.2 | 3.2 | 0.00 | 0.00 | 0.00 | 71 | 1028.9 |
| 20260830074810 | 16 | 90 | 1.6 | 3.2 | 0.00 | 0.00 | 0.00 | 71 | 1028.9 |
| 20260830073812 | 17 | 90 | 1.6 | 3.2 | 0.00 | 0.00 | 0.00 | 69 | 1028.8 |
| 20260830072814 | 17 | 90 | 1.6 | 3.2 | 0.00 | 0.00 | 0.00 | 68 | 1028.8 |
| 20260830070317 | 18 | 90 | 1.6 | 3.2 | 0.00 | 0.00 | 0.00 | 64 | 1028.6 |
| 20260830065818 | 18 | 90 | 1.6 | 3.2 | 0.00 | 0.00 | 0.00 | 64 | 1028.6 |
| 20260830065318 | 18 | 90 | 1.6 | 3.2 | 0.00 | 0.00 | 0.00 | 63 | 1028.6 |
| 20260830064319 | 19 | 90 | 3.2 | 4.8 | 0.00 | 0.00 | 0.00 | 61 | 1028.6 |
| 20260830063322 | 19 | 90 | 3.2 | 4.8 | 0.00 | 0.00 | 0.00 | 61 | 1028.5 |
| 20260830062823 | 19 | 135 | 3.2 | 4.8 | 0.00 | 0.00 | 0.00 | 61 | 1028.5 |
| 20260830061325 | 19 | 135 | 3.2 | 6.4 | 0.00 | 0.00 | 0.00 | 61 | 1028.4 |
| 20260830055330 | 20 | 135 | 3.2 | 4.8 | 0.00 | 0.00 | 0.00 | 60 | 1028.4 |
| 20260830054332 | 20 | 90 | 3.2 | 3.2 | 0.00 | 0.00 | 0.00 | 57 | 1028.4 |
| 20260830053833 | 20 | 90 | 3.2 | 3.2 | 0.00 | 0.00 | 0.00 | 56 | 1028.4 |
| 20260830053334 | 21 | 90 | 3.2 | 6.4 | 0.00 | 0.00 | 0.00 | 54 | 1028.4 |
| 20260830050338 | 21 | 90 | 3.2 | 4.8 | 0.00 | 0.00 | 0.00 | 53 | 1028.6 |
| 20260830044841 | 21 | 90 | 4.8 | 8.0 | 0.00 | 0.00 | 0.00 | 52 | 1028.6 |
| 20260830043843 | 23 | 135 | 3.2 | 8.0 | 0.00 | 0.00 | 0.00 | 47 | 1028.5 |
| 20260830042845 | 23 | 135 | 6.4 | 8.0 | 0.00 | 0.00 | 0.00 | 45 | 1028.6 |
| 20260830041826 | 23 | 135 | 3.2 | 4.8 | 0.00 | 0.00 | 0.00 | 47 | 1028.6 |
| 20260830041327 | 23 | 180 | 4.8 | 8.0 | 0.00 | 0.00 | 0.00 | 46 | 1028.6 |